^^
Meteo Knjazevac Station Historical Data
Daily Summary for March 18, 2021 Units:  Both    English   Metric
Daily Weekly Monthly Yearly Custom
  High: Low: Average:
Temperature: 66 °F /  18.9 °C 59.4 °F /  15.2 °C 62.6 °F /  17 °C
Dew Point: 60.7 °F /  15.9 °C 53.7 °F /  12.1 °C 56.6 °F /  13.7 °C
Humidity: 84% 79% 81%
Wind Speed: 5mph /  8km/h - 1.8mph /  2.9km/h
Wind Gust: 8mph /  12.9km/h - -
Wind- - SSW
Pressure: 30.05 in /  1017.5 hPa 30.03 in /  1016.8 hPa -
Precipitation: 0.00 in /  0 mm    
Historical Graphs
 
 
Tabular Data for March 18, 2021
Time Temperature Dew Point Pressure Wind Wind Speed Wind Gust Humidity Rainfall Rate (Hourly) solar Conditions
00:00 66 °F /  18.9 °C 60 °F /  15.6 °C 30.04in /  1017.2hPa SW 2mph /  3.2km/h 6mph /  9.7km/h 81% 0.00in /  0mm 0 W/m2
00:10 66 °F /  18.9 °C 60.7 °F /  15.9 °C 30.04in /  1017.2hPa South 1mph /  1.6km/h 6mph /  9.7km/h 83% 0.00in /  0mm 0 W/m2
00:20 65.8 °F /  18.8 °C 60.2 °F /  15.7 °C 30.04in /  1017.2hPa SSW 3mph /  4.8km/h 6mph /  9.7km/h 82% 0.00in /  0mm 0 W/m2
00:30 65.7 °F /  18.7 °C 59.7 °F /  15.4 °C 30.04in /  1017.2hPa SW 3mph /  4.8km/h 5mph /  8km/h 81% 0.00in /  0mm 0 W/m2
00:40 65.5 °F /  18.6 °C 59.5 °F /  15.3 °C 30.04in /  1017.2hPa SW 3mph /  4.8km/h 6mph /  9.7km/h 81% 0.00in /  0mm 0 W/m2
00:50 65.5 °F /  18.6 °C 59.1 °F /  15.1 °C 30.04in /  1017.2hPa SW 5mph /  8km/h 8mph /  12.9km/h 80% 0.00in /  0mm 0 W/m2
01:00 65.3 °F /  18.5 °C 59 °F /  15 °C 30.04in /  1017.2hPa SSW 1mph /  1.6km/h 6mph /  9.7km/h 80% 0.00in /  0mm 0 W/m2
01:10 65.1 °F /  18.4 °C 58.8 °F /  14.9 °C 30.04in /  1017.2hPa SSE 1mph /  1.6km/h 6mph /  9.7km/h 80% 0.00in /  0mm 0 W/m2
01:20 64.8 °F /  18.2 °C 58.4 °F /  14.7 °C 30.04in /  1017.2hPa Calm   6mph /  9.7km/h 80% 0.00in /  0mm 0 W/m2
01:30 64.6 °F /  18.1 °C 58.3 °F /  14.6 °C 30.04in /  1017.2hPa SE 2mph /  3.2km/h 6mph /  9.7km/h 80% 0.00in /  0mm 0 W/m2
01:40 64.4 °F /  18 °C 58.1 °F /  14.5 °C 30.04in /  1017.2hPa South 2mph /  3.2km/h 5mph /  8km/h 80% 0.00in /  0mm 0 W/m2
01:50 64.2 °F /  17.9 °C 57.9 °F /  14.4 °C 30.04in /  1017.2hPa South 3mph /  4.8km/h 5mph /  8km/h 80% 0.00in /  0mm 0 W/m2
02:00 64.2 °F /  17.9 °C 57.9 °F /  14.4 °C 30.03in /  1016.8hPa SSW 2mph /  3.2km/h 5mph /  8km/h 80% 0.00in /  0mm 0 W/m2
02:10 64 °F /  17.8 °C 57.4 °F /  14.1 °C 30.03in /  1016.8hPa SW 5mph /  8km/h 8mph /  12.9km/h 79% 0.00in /  0mm 0 W/m2
02:20 63.9 °F /  17.7 °C 57.2 °F /  14 °C 30.03in /  1016.8hPa SSW 3mph /  4.8km/h 7mph /  11.3km/h 79% 0.00in /  0mm 0 W/m2
02:30 63.7 °F /  17.6 °C 57 °F /  13.9 °C 30.03in /  1016.8hPa SW 3mph /  4.8km/h 7mph /  11.3km/h 79% 0.00in /  0mm 0 W/m2
02:40 63.5 °F /  17.5 °C 56.9 °F /  13.8 °C 30.03in /  1016.8hPa SW 2mph /  3.2km/h 6mph /  9.7km/h 79% 0.00in /  0mm 0 W/m2
02:50 63.5 °F /  17.5 °C 56.9 °F /  13.8 °C 30.03in /  1016.8hPa SSW 3mph /  4.8km/h 6mph /  9.7km/h 79% 0.00in /  0mm 0 W/m2
03:00 63.3 °F /  17.4 °C 56.7 °F /  13.7 °C 30.03in /  1016.8hPa SW 3mph /  4.8km/h 6mph /  9.7km/h 79% 0.00in /  0mm 0 W/m2
03:10 63.1 °F /  17.3 °C 56.5 °F /  13.6 °C 30.03in /  1016.8hPa SW 3mph /  4.8km/h 6mph /  9.7km/h 79% 0.00in /  0mm 0 W/m2
03:20 62.8 °F /  17.1 °C 56.2 °F /  13.4 °C 30.04in /  1017.2hPa SW 2mph /  3.2km/h 5mph /  8km/h 79% 0.00in /  0mm 0 W/m2
03:30 62.8 °F /  17.1 °C 56.5 °F /  13.6 °C 30.04in /  1017.2hPa SSW 2mph /  3.2km/h 4mph /  6.4km/h 80% 0.00in /  0mm 0 W/m2
03:40 62.4 °F /  16.9 °C 56.2 °F /  13.4 °C 30.04in /  1017.2hPa SW 1mph /  1.6km/h 3mph /  4.8km/h 80% 0.00in /  0mm 0 W/m2
03:50 62.2 °F /  16.8 °C 56 °F /  13.3 °C 30.04in /  1017.2hPa SW 2mph /  3.2km/h 2mph /  3.2km/h 80% 0.00in /  0mm 0 W/m2
04:00 61.9 °F /  16.6 °C 56 °F /  13.3 °C 30.04in /  1017.2hPa Calm   2mph /  3.2km/h 81% 0.00in /  0mm 0 W/m2
04:10 61.7 °F /  16.5 °C 55.8 °F /  13.2 °C 30.04in /  1017.2hPa SSW 2mph /  3.2km/h 5mph /  8km/h 81% 0.00in /  0mm 0 W/m2
04:20 61.4 °F /  16.3 °C 55.5 °F /  13.1 °C 30.04in /  1017.2hPa SSW 2mph /  3.2km/h 5mph /  8km/h 81% 0.00in /  0mm 0 W/m2
04:30 61.2 °F /  16.2 °C 55.3 °F /  12.9 °C 30.04in /  1017.2hPa South 1mph /  1.6km/h 5mph /  8km/h 81% 0.00in /  0mm 0 W/m2
04:40 61 °F /  16.1 °C 55.2 °F /  12.9 °C 30.04in /  1017.2hPa SW 1mph /  1.6km/h 4mph /  6.4km/h 81% 0.00in /  0mm 0 W/m2
04:50 60.8 °F /  16 °C 54.9 °F /  12.7 °C 30.04in /  1017.2hPa WNW 2mph /  3.2km/h 4mph /  6.4km/h 81% 0.00in /  0mm 0 W/m2
05:00 60.6 °F /  15.9 °C 54.8 °F /  12.7 °C 30.04in /  1017.2hPa SW 2mph /  3.2km/h 5mph /  8km/h 81% 0.00in /  0mm 0 W/m2
05:10 60.4 °F /  15.8 °C 55.3 °F /  12.9 °C 30.04in /  1017.2hPa Calm   4mph /  6.4km/h 83% 0.00in /  0mm 0 W/m2
05:20 60.3 °F /  15.7 °C 55.1 °F /  12.8 °C 30.04in /  1017.2hPa SW 1mph /  1.6km/h 3mph /  4.8km/h 83% 0.00in /  0mm 0 W/m2
05:30 60.1 °F /  15.6 °C 54.6 °F /  12.6 °C 30.04in /  1017.2hPa Calm   2mph /  3.2km/h 82% 0.00in /  0mm 0 W/m2
05:40 59.9 °F /  15.5 °C 54.1 °F /  12.3 °C 30.04in /  1017.2hPa SE 1mph /  1.6km/h 2mph /  3.2km/h 81% 0.00in /  0mm 3 W/m2
05:50 59.7 °F /  15.4 °C 54.2 °F /  12.3 °C 30.04in /  1017.2hPa NE 1mph /  1.6km/h 2mph /  3.2km/h 82% 0.00in /  0mm 9 W/m2
06:00 59.5 °F /  15.3 °C 54.7 °F /  12.6 °C 30.04in /  1017.2hPa West 2mph /  3.2km/h 3mph /  4.8km/h 84% 0.00in /  0mm 17 W/m2
06:10 59.4 °F /  15.2 °C 54.5 °F /  12.5 °C 30.05in /  1017.5hPa SW 1mph /  1.6km/h 3mph /  4.8km/h 84% 0.00in /  0mm 28 W/m2
06:20 59.4 °F /  15.2 °C 54.2 °F /  12.3 °C 30.05in /  1017.5hPa ENE 1mph /  1.6km/h 3mph /  4.8km/h 83% 0.00in /  0mm 43 W/m2
06:30 59.5 °F /  15.3 °C 53.7 °F /  12.1 °C 30.05in /  1017.5hPa SE 1mph /  1.6km/h 4mph /  6.4km/h 81% 0.00in /  0mm 64 W/m2
06:40 59.7 °F /  15.4 °C 53.9 °F /  12.2 °C 30.05in /  1017.5hPa Calm   3mph /  4.8km/h 81% 0.00in /  0mm 81 W/m2
06:50 60 °F /  15.6 °C 54.2 °F /  12.3 °C 30.05in /  1017.5hPa North 2mph /  3.2km/h 4mph /  6.4km/h 81% 0.00in /  0mm 82 W/m2
Knjazevac, Serbia
Compliments of Weather Underground - 2 mb